Time;durP1;ratioP1;P1;durP2;ratioP2;P2;SDS_P1;SDS_P2;PMS_P1;PMS_P2;Temp;Humidity;BMP_temperature;BMP_pressure;BME280_temperature;BME280_humidity;BME280_pressure;Samples;Min_cycle;Max_cycle;Signal;HPM_P1;HPM_P2
2021/05/06 00:00:02;;;;;;;11.80;2.63;;;;;;;4.85;69.88;99823.53;5008359;28;20652;-72
2021/05/06 00:03:13;;;;;;;14.25;2.58;;;;;;;4.79;69.65;99812.47;5017662;28;20121;-71
2021/05/06 00:06:16;;;;;;;13.02;2.45;;;;;;;4.80;69.45;99815.91;5012041;28;20140;-73
2021/05/06 00:30:01;;;;;;;16.85;3.67;;;;;;;4.82;68.54;99832.34;5006326;28;20072;-74
2021/05/06 00:32:33;;;;;;;13.90;2.88;;;;;;;4.84;68.71;99830.50;4999785;28;20056;-74
2021/05/06 00:34:59;;;;;;;9.25;1.75;;;;;;;4.77;69.34;99840.41;5009498;28;20050;-74
2021/05/06 00:37:26;;;;;;;14.07;2.17;;;;;;;4.76;69.37;99833.47;5005235;28;20054;-72
2021/05/06 00:42:46;;;;;;;11.27;2.13;;;;;;;4.77;68.92;99836.91;5000606;28;20054;-72
2021/05/06 00:59:08;;;;;;;18.95;3.38;;;;;;;4.64;70.88;99843.63;5005804;28;20522;-73
2021/05/06 01:01:43;;;;;;;13.65;2.08;;;;;;;4.63;70.67;99848.00;5008534;28;20057;-72
2021/05/06 01:06:56;;;;;;;16.52;2.58;;;;;;;4.47;71.63;99857.47;5003378;28;20066;-73
2021/05/06 01:09:27;;;;;;;11.98;2.38;;;;;;;4.49;71.01;99847.81;4994776;28;20050;-73
2021/05/06 01:11:58;;;;;;;6.53;2.00;;;;;;;4.40;71.56;99854.28;5003644;28;20041;-74
2021/05/06 01:14:24;;;;;;;12.65;1.90;;;;;;;4.41;71.56;99842.94;5001260;28;20068;-74
2021/05/06 01:16:51;;;;;;;14.95;2.53;;;;;;;4.42;71.36;99855.06;4981923;28;20216;-73
2021/05/06 01:19:18;;;;;;;14.20;2.10;;;;;;;4.40;70.99;99854.28;5004360;28;20046;-74
2021/05/06 01:21:45;;;;;;;10.25;2.05;;;;;;;4.35;70.57;99853.66;4999671;28;20050;-72
2021/05/06 01:24:11;;;;;;;19.92;3.35;;;;;;;4.32;71.09;99851.19;5009191;28;20550;-72
2021/05/06 01:26:45;;;;;;;14.98;2.40;;;;;;;4.29;70.49;99852.19;5004120;28;20046;-73
2021/05/06 01:29:18;;;;;;;13.57;1.98;;;;;;;4.29;71.09;99843.53;5004519;28;20068;-72
2021/05/06 01:31:53;;;;;;;8.80;1.75;;;;;;;4.29;70.85;99851.34;4984312;28;20046;-72
2021/05/06 01:34:22;;;;;;;6.90;1.90;;;;;;;4.26;71.38;99857.53;5009311;28;20053;-72
2021/05/06 01:36:59;;;;;;;16.67;2.97;;;;;;;4.27;70.36;99855.75;5003976;28;20159;-71
2021/05/06 01:59:52;;;;;;;11.73;1.85;;;;;;;3.95;70.80;99847.63;5003109;28;20038;-71
2021/05/06 02:02:18;;;;;;;10.80;2.08;;;;;;;3.96;70.70;99849.34;5003045;28;20550;-72
2021/05/06 02:04:45;;;;;;;7.50;1.88;;;;;;;3.97;70.43;99842.38;4997522;28;20054;-72
2021/05/06 02:07:12;;;;;;;8.77;1.75;;;;;;;3.94;71.72;99842.50;5001050;28;20164;-73
2021/05/06 02:09:40;;;;;;;9.82;1.92;;;;;;;3.96;71.18;99843.25;4998121;28;20052;-73
2021/05/06 02:12:09;;;;;;;9.52;2.30;;;;;;;3.92;71.07;99842.56;5002915;28;20054;-73
2021/05/06 02:14:36;;;;;;;14.73;2.13;;;;;;;3.89;70.81;99850.50;5007783;28;20050;-72
2021/05/06 02:17:03;;;;;;;7.63;1.70;;;;;;;3.96;71.08;99845.84;5014017;28;20110;-72
2021/05/06 02:19:34;;;;;;;11.73;2.22;;;;;;;3.93;71.03;99846.84;5011046;28;20034;-76
2021/05/06 02:22:04;;;;;;;10.43;2.40;;;;;;;3.92;70.42;99839.97;5001822;28;20057;-72
2021/05/06 02:24:30;;;;;;;8.48;1.83;;;;;;;3.90;71.32;99844.38;5006823;28;20130;-72
2021/05/06 02:26:57;;;;;;;5.88;2.10;;;;;;;3.90;70.92;99843.53;5001521;28;20078;-72
2021/05/06 02:29:24;;;;;;;6.25;1.60;;;;;;;3.90;71.42;99840.94;5015991;28;20045;-72
2021/05/06 02:31:51;;;;;;;11.05;1.75;;;;;;;3.91;71.08;99845.22;4999599;28;20054;-71
2021/05/06 02:34:18;;;;;;;9.90;1.98;;;;;;;3.95;72.19;99845.00;5011066;28;20140;-73
2021/05/06 02:36:44;;;;;;;8.20;2.03;;;;;;;3.93;71.70;99859.88;5008311;28;20052;-74
2021/05/06 02:39:11;;;;;;;10.68;2.50;;;;;;;3.94;71.93;99852.91;5001075;28;20138;-71
2021/05/06 02:41:38;;;;;;;11.45;2.17;;;;;;;3.81;72.84;99852.59;5013520;28;20072;-73
2021/05/06 02:44:05;;;;;;;9.00;1.88;;;;;;;3.80;73.05;99859.56;5014634;28;20126;-72
2021/05/06 02:46:31;;;;;;;14.90;3.63;;;;;;;3.85;73.13;99859.34;5002145;28;20133;-73
2021/05/06 02:48:58;;;;;;;8.55;2.00;;;;;;;3.90;73.42;99861.75;4993217;28;20240;-73
2021/05/06 02:51:31;;;;;;;10.15;1.65;;;;;;;3.81;73.42;99856.03;5006820;28;20053;-74
2021/05/06 02:53:58;;;;;;;12.20;2.10;;;;;;;3.78;73.54;99857.91;5005028;28;20149;-72
2021/05/06 02:56:35;;;;;;;6.95;1.88;;;;;;;3.78;74.00;99860.53;4990890;28;20709;-74
2021/05/06 03:04:32;;;;;;;9.60;2.03;;;;;;;3.81;74.73;99857.78;5011527;28;20037;-73
2021/05/06 03:07:03;;;;;;;11.27;2.28;;;;;;;3.83;74.51;99856.00;5009533;28;20046;-72
2021/05/06 03:09:56;;;;;;;8.25;1.63;;;;;;;3.90;73.96;99862.59;5005088;28;20054;-73
2021/05/06 03:15:05;;;;;;;12.30;2.50;;;;;;;3.76;75.19;99858.00;5010776;28;20054;-73
2021/05/06 03:23:03;;;;;;;11.23;2.05;;;;;;;3.76;75.12;99863.19;5005575;28;20093;-73
2021/05/06 03:25:30;;;;;;;15.88;2.80;;;;;;;3.85;75.01;99861.97;5007376;28;20052;-73
2021/05/06 03:28:02;;;;;;;9.48;2.05;;;;;;;3.92;74.80;99863.41;5006450;28;20054;-72
2021/05/06 03:30:43;;;;;;;12.25;2.50;;;;;;;3.87;74.29;99860.13;4985846;28;20050;-71
2021/05/06 03:47:04;;;;;;;9.55;2.03;;;;;;;3.98;74.28;99870.94;5034554;28;20504;-71
2021/05/06 03:50:09;;;;;;;9.55;2.60;;;;;;;4.00;73.82;99873.47;5012569;28;20141;-74
2021/05/06 04:12:01;;;;;;;12.63;2.60;;;;;;;4.24;72.35;99869.78;4991037;28;20046;-72
2021/05/06 04:12:37;;;;;;;15.95;2.60;;;;;;;4.35;72.04;99878.88;5002324;28;20054;-74
2021/05/06 04:25:40;;;;;;;21.10;3.25;;;;;;;6.07;65.58;99896.56;5009034;28;20120;-73
2021/05/06 04:39:15;;;;;;;9.75;2.03;;;;;;;9.13;54.35;99904.13;5009175;28;20128;-70
2021/05/06 04:41:52;;;;;;;8.88;2.33;;;;;;;9.82;52.33;99905.72;4982533;28;20173;-72
2021/05/06 04:55:13;;;;;;;9.23;2.17;;;;;;;12.92;43.74;99889.00;5054623;28;20036;-83
2021/05/06 05:03:31;;;;;;;8.35;2.88;;;;;;;15.09;38.57;99889.13;5046999;28;20076;-83
2021/05/06 05:05:58;;;;;;;7.63;2.17;;;;;;;13.78;40.16;99890.78;5060193;28;20107;-85
2021/05/06 05:08:28;;;;;;;4.95;1.77;;;;;;;14.02;39.68;99903.75;5061938;28;20049;-81
2021/05/06 05:18:53;;;;;;;9.35;2.40;;;;;;;16.44;34.45;99895.31;5043187;28;20048;-83
2021/05/06 05:24:00;;;;;;;15.23;2.88;;;;;;;14.79;36.23;99898.00;5053670;28;20037;-83
2021/05/06 05:26:27;;;;;;;7.47;1.88;;;;;;;14.09;37.88;99904.03;5042303;28;20060;-81
2021/05/06 05:28:53;;;;;;;10.70;1.95;;;;;;;13.42;38.67;99898.16;5065909;28;20033;-82
2021/05/06 05:31:21;;;;;;;9.77;2.65;;;;;;;14.40;37.23;99904.91;5063784;23;20141;-67
2021/05/06 05:33:56;;;;;;;12.10;2.80;;;;;;;14.23;36.94;99900.22;5055504;28;20078;-71
2021/05/06 05:36:24;;;;;;;8.27;2.97;;;;;;;14.66;37.05;99902.69;5055373;28;20048;-71
2021/05/06 05:39:08;;;;;;;8.40;2.08;;;;;;;15.73;34.24;99892.25;5045800;28;20082;-70
2021/05/06 05:47:17;;;;;;;9.60;2.90;;;;;;;15.56;34.84;99899.06;5047079;28;20087;-70
2021/05/06 05:55:14;;;;;;;11.97;2.20;;;;;;;14.66;36.82;99884.97;5052492;28;21228;-71
2021/05/06 05:57:44;;;;;;;9.18;2.30;;;;;;;14.02;37.74;99890.50;5047471;28;20408;-70
2021/05/06 06:00:11;;;;;;;5.03;1.73;;;;;;;16.11;34.40;99886.84;5055475;28;20525;-70
2021/05/06 06:02:38;;;;;;;5.55;1.90;;;;;;;15.64;34.86;99896.59;5058256;28;20055;-71
2021/05/06 06:05:06;;;;;;;9.35;2.03;;;;;;;14.58;36.17;99894.56;5062080;28;20045;-71
2021/05/06 06:07:33;;;;;;;8.70;2.28;;;;;;;13.80;37.15;99891.47;5074889;28;20078;-70
2021/05/06 06:10:00;;;;;;;12.02;2.17;;;;;;;13.85;37.78;99894.56;5071341;28;20075;-71
2021/05/06 06:12:27;;;;;;;7.22;2.38;;;;;;;13.53;38.51;99891.97;5070676;28;20048;-72
2021/05/06 06:15:02;;;;;;;15.00;2.53;;;;;;;13.00;39.52;99891.03;5052252;28;20053;-70
2021/05/06 06:17:35;;;;;;;6.90;1.85;;;;;;;12.44;40.92;99891.97;5058878;28;20128;-71
2021/05/06 06:20:03;;;;;;;12.50;2.60;;;;;;;12.37;41.51;99891.59;5056916;28;20051;-73
2021/05/06 06:22:31;;;;;;;13.00;2.63;;;;;;;12.67;40.68;99890.97;5050821;28;20143;-70
2021/05/06 06:25:01;;;;;;;10.95;2.00;;;;;;;12.16;41.64;99891.47;5056785;28;20049;-70
2021/05/06 06:27:29;;;;;;;9.60;2.70;;;;;;;10.38;45.23;99897.53;5067590;28;20486;-70
2021/05/06 06:29:56;;;;;;;8.98;2.05;;;;;;;10.94;45.19;99897.91;5070682;28;20073;-70
2021/05/06 06:32:23;;;;;;;13.98;2.10;;;;;;;13.35;39.55;99898.78;5065380;28;20040;-71
2021/05/06 06:34:51;;;;;;;11.48;2.30;;;;;;;15.32;36.00;99892.38;5054530;28;20091;-72
2021/05/06 06:37:18;;;;;;;10.43;2.92;;;;;;;14.31;37.08;99895.94;5056222;28;20055;-71
2021/05/06 06:39:46;;;;;;;9.43;2.17;;;;;;;13.86;37.84;99898.88;5053258;28;20106;-72
2021/05/06 06:42:13;;;;;;;8.38;2.15;;;;;;;13.89;37.74;99884.59;5058385;28;20045;-71
2021/05/06 06:44:41;;;;;;;9.95;2.53;;;;;;;13.77;39.13;99881.16;5050464;28;20076;-71
2021/05/06 06:47:08;;;;;;;20.73;3.53;;;;;;;15.33;37.58;99882.59;5058453;28;20051;-73
2021/05/06 06:49:37;;;;;;;12.00;2.92;;;;;;;17.81;31.86;99882.81;5050573;28;20507;-72
2021/05/06 06:52:05;;;;;;;9.95;3.28;;;;;;;16.29;33.66;99878.97;5057866;28;20059;-71
2021/05/06 06:54:33;;;;;;;13.48;3.92;;;;;;;15.52;36.29;99884.41;5050649;28;20075;-69
2021/05/06 06:57:06;;;;;;;12.10;2.95;;;;;;;13.17;38.58;99886.06;5052350;28;20045;-74
2021/05/06 06:59:33;;;;;;;16.08;3.25;;;;;;;11.02;43.07;99889.47;5052895;28;20127;-71
2021/05/06 07:01:59;;;;;;;10.77;2.20;;;;;;;12.28;40.51;99887.03;5057576;28;20086;-73
2021/05/06 07:04:28;;;;;;;12.88;2.40;;;;;;;15.76;35.20;99884.00;5055635;28;20407;-72
2021/05/06 07:06:56;;;;;;;14.57;2.40;;;;;;;14.83;35.15;99869.41;5056723;28;20073;-69
2021/05/06 07:09:23;;;;;;;15.57;2.40;;;;;;;12.30;40.83;99871.94;5057611;28;20064;-70
2021/05/06 07:11:50;;;;;;;8.02;2.05;;;;;;;13.26;39.61;99892.44;5042760;28;20059;-72
2021/05/06 07:14:17;;;;;;;11.48;2.50;;;;;;;13.46;38.01;99887.31;5045600;28;20070;-70
2021/05/06 07:16:44;;;;;;;8.73;1.98;;;;;;;13.58;38.03;99888.94;5017509;28;20131;-70
2021/05/06 07:19:11;;;;;;;7.32;1.75;;;;;;;13.34;38.24;99892.66;5063174;28;21856;-71
2021/05/06 07:21:38;;;;;;;7.35;1.73;;;;;;;14.76;36.00;99892.13;5055466;28;20132;-69
2021/05/06 07:24:05;;;;;;;10.48;2.13;;;;;;;15.51;34.53;99888.03;5051016;28;20164;-70
2021/05/06 07:26:34;;;;;;;6.88;1.73;;;;;;;15.17;34.20;99891.06;5052061;28;20949;-72
2021/05/06 07:29:04;;;;;;;8.10;1.80;;;;;;;15.19;34.59;99883.84;5043663;28;20045;-69
2021/05/06 07:31:33;;;;;;;9.43;2.40;;;;;;;14.19;36.31;99892.56;5046900;28;20063;-70
2021/05/06 07:34:02;;;;;;;6.63;1.73;;;;;;;13.37;38.77;99905.63;5051813;28;20562;-71
2021/05/06 07:36:32;;;;;;;9.40;2.33;;;;;;;12.58;39.31;99893.50;5053429;28;20140;-69
2021/05/06 07:39:03;;;;;;;8.90;2.70;;;;;;;12.53;38.89;99896.50;5042494;28;20106;-69
2021/05/06 07:41:33;;;;;;;7.47;2.13;;;;;;;12.47;39.33;99885.59;5048321;28;20048;-70
2021/05/06 07:44:02;;;;;;;9.95;2.20;;;;;;;12.43;39.35;99887.66;5045959;28;20453;-70
2021/05/06 07:46:32;;;;;;;9.55;2.50;;;;;;;12.49;39.17;99891.59;5028571;28;20041;-69
2021/05/06 07:49:01;;;;;;;12.40;3.33;;;;;;;13.17;39.29;99895.81;5051540;28;20080;-68
2021/05/06 07:51:32;;;;;;;14.90;2.80;;;;;;;13.86;37.05;99893.59;5061001;28;20052;-71
2021/05/06 07:54:07;;;;;;;8.68;2.03;;;;;;;14.29;35.38;99889.97;5053536;28;20160;-69
2021/05/06 07:56:41;;;;;;;8.40;2.42;;;;;;;16.18;32.51;99887.97;5050558;28;20048;-71
2021/05/06 07:59:08;;;;;;;14.07;2.70;;;;;;;15.63;33.61;99882.47;5051458;28;20051;-69
2021/05/06 08:01:34;;;;;;;8.35;2.17;;;;;;;16.41;31.72;99890.28;5051954;28;20506;-71
2021/05/06 08:04:02;;;;;;;7.88;1.73;;;;;;;14.05;36.03;99899.97;5043375;28;20061;-70
2021/05/06 08:06:29;;;;;;;12.02;2.55;;;;;;;11.67;41.17;99899.59;5048476;28;20053;-69
2021/05/06 08:08:56;;;;;;;7.47;1.83;;;;;;;12.13;40.53;99898.78;5031900;28;20033;-70
2021/05/06 08:11:23;;;;;;;17.30;2.55;;;;;;;11.26;41.79;99886.88;5037892;28;20055;-69
2021/05/06 08:13:50;;;;;;;11.15;2.20;;;;;;;11.34;41.49;99901.13;5047883;28;20040;-71
2021/05/06 08:16:17;;;;;;;9.75;2.15;;;;;;;11.34;41.24;99910.84;5050277;28;20648;-70
2021/05/06 08:18:44;;;;;;;10.20;2.00;;;;;;;12.04;39.50;99902.97;5051563;28;20056;-72
2021/05/06 08:21:10;;;;;;;9.35;2.88;;;;;;;12.94;36.51;99900.31;5050335;28;20052;-69
2021/05/06 08:23:37;;;;;;;5.10;1.30;;;;;;;13.86;35.33;99906.00;5056382;28;20132;-73
2021/05/06 08:26:04;;;;;;;11.90;2.33;;;;;;;15.70;32.44;99891.53;5045988;28;20080;-74
2021/05/06 08:28:48;;;;;;;6.60;1.88;;;;;;;16.20;31.74;99885.16;5048593;28;20053;-70
2021/05/06 08:31:14;;;;;;;7.95;2.03;;;;;;;13.81;35.47;99903.72;5047172;28;20071;-70
2021/05/06 08:33:41;;;;;;;10.55;1.90;;;;;;;13.47;36.07;99900.44;5053445;28;20687;-69
2021/05/06 08:36:08;;;;;;;6.60;1.85;;;;;;;12.45;38.63;99898.91;5049528;28;20052;-71
2021/05/06 08:38:35;;;;;;;12.55;2.67;;;;;;;12.11;39.09;99898.91;5051244;28;20040;-71
2021/05/06 08:41:02;;;;;;;10.27;2.35;;;;;;;12.92;38.42;99894.28;5057346;28;20048;-71
2021/05/06 08:43:33;;;;;;;15.20;3.10;;;;;;;12.99;38.19;99897.31;5030550;28;20115;-72
2021/05/06 08:46:00;;;;;;;8.45;1.90;;;;;;;13.90;36.00;99897.66;5044336;28;20057;-71
2021/05/06 08:48:27;;;;;;;8.13;2.63;;;;;;;13.92;36.33;99892.28;5044722;28;20037;-71
2021/05/06 08:50:55;;;;;;;11.13;2.35;;;;;;;13.67;36.76;99896.97;5028967;28;20064;-71
2021/05/06 08:53:23;;;;;;;6.53;2.08;;;;;;;13.97;35.98;99905.09;5046519;28;20059;-70
2021/05/06 08:55:53;;;;;;;6.68;1.73;;;;;;;14.11;35.63;99904.78;5048352;28;20056;-69
2021/05/06 08:58:21;;;;;;;13.85;2.80;;;;;;;13.82;35.69;99894.00;5050050;28;20047;-69
2021/05/06 09:00:47;;;;;;;10.73;2.38;;;;;;;13.82;36.22;99901.94;5038854;28;20486;-71
2021/05/06 09:03:14;;;;;;;12.60;4.22;;;;;;;13.50;36.28;99897.50;5048832;28;20114;-71
2021/05/06 09:06:07;;;;;;;8.38;2.53;;;;;;;13.54;36.33;99895.47;5047299;28;20148;-68
2021/05/06 09:08:36;;;;;;;7.15;2.35;;;;;;;13.07;36.96;99903.66;5041930;28;20084;-71
2021/05/06 09:11:02;;;;;;;11.07;3.53;;;;;;;13.62;36.87;99903.59;5047921;28;20041;-71
2021/05/06 09:13:31;;;;;;;6.43;2.15;;;;;;;12.77;38.27;99900.81;5045864;28;20040;-71
2021/05/06 09:15:59;;;;;;;8.70;2.28;;;;;;;13.07;37.79;99908.09;5049494;28;20048;-69
2021/05/06 09:18:39;;;;;;;6.35;2.80;;;;;;;12.32;39.38;99906.09;5046917;28;20045;-70
2021/05/06 09:21:08;;;;;;;10.90;2.50;;;;;;;11.78;40.17;99909.34;5047696;28;20546;-71
2021/05/06 09:23:35;;;;;;;5.50;2.53;;;;;;;12.02;40.54;99911.94;5051000;28;20120;-68
2021/05/06 09:26:04;;;;;;;6.63;2.95;;;;;;;12.45;39.77;99906.84;5048014;28;20614;-69
2021/05/06 09:28:34;;;;;;;14.77;2.92;;;;;;;12.12;40.68;99903.22;5044971;28;20068;-69
2021/05/06 09:31:06;;;;;;;10.90;2.72;;;;;;;11.81;41.66;99903.84;5032685;28;20049;-69
2021/05/06 09:33:47;;;;;;;6.68;2.65;;;;;;;11.59;42.88;99901.97;5053676;28;20503;-69
2021/05/06 09:36:22;;;;;;;8.43;2.90;;;;;;;11.19;43.41;99907.53;5047353;28;20049;-70
2021/05/06 09:38:53;;;;;;;6.15;2.97;;;;;;;11.33;43.45;99898.63;5030020;28;20146;-70
2021/05/06 09:41:24;;;;;;;11.27;3.08;;;;;;;10.56;45.19;99917.28;5067449;28;20104;-68
2021/05/06 09:43:52;;;;;;;9.18;3.30;;;;;;;10.37;46.69;99909.84;5064688;28;20072;-68
2021/05/06 09:46:42;;;;;;;13.68;3.85;;;;;;;10.77;46.69;99904.41;5032027;28;20067;-70
2021/05/06 09:49:10;;;;;;;14.13;3.95;;;;;;;10.83;46.40;99900.50;5043643;28;20068;-68
2021/05/06 09:51:44;;;;;;;8.40;3.47;;;;;;;11.76;44.80;99903.34;5032629;28;20496;-68
2021/05/06 09:54:30;;;;;;;8.27;3.53;;;;;;;12.75;42.59;99897.47;5047032;28;20060;-67
2021/05/06 09:57:00;;;;;;;9.65;3.08;;;;;;;12.49;42.71;99897.72;5046344;28;20553;-68
2021/05/06 09:59:29;;;;;;;8.85;3.35;;;;;;;12.17;43.07;99894.94;5056159;28;20053;-69
2021/05/06 10:02:19;;;;;;;8.40;2.63;;;;;;;12.16;42.68;99894.09;5047349;28;20051;-70
2021/05/06 10:04:48;;;;;;;9.40;2.47;;;;;;;12.33;43.00;99897.22;5048185;28;20068;-71
2021/05/06 10:07:23;;;;;;;8.70;3.35;;;;;;;12.32;42.64;99900.81;5053538;28;20052;-71
2021/05/06 10:10:07;;;;;;;5.45;2.90;;;;;;;12.10;42.24;99899.84;5056211;28;20037;-70
2021/05/06 10:12:36;;;;;;;9.93;3.53;;;;;;;11.98;43.56;99906.06;5041769;28;20198;-69
2021/05/06 10:15:07;;;;;;;10.40;3.33;;;;;;;11.27;44.01;99899.91;5050763;28;20453;-69
2021/05/06 10:17:36;;;;;;;9.23;3.25;;;;;;;10.34;46.68;99907.41;5052038;28;20055;-69
2021/05/06 10:20:04;;;;;;;12.52;4.15;;;;;;;10.36;47.26;99905.53;5052680;28;20448;-68
2021/05/06 10:22:31;;;;;;;15.75;4.57;;;;;;;10.21;49.40;99908.34;5052119;28;20713;-70
2021/05/06 10:25:01;;;;;;;11.38;3.97;;;;;;;10.06;49.12;99908.44;5057574;28;20051;-69
2021/05/06 10:27:29;;;;;;;14.43;3.90;;;;;;;10.31;49.83;99912.91;5034615;28;20060;-70
2021/05/06 10:29:58;;;;;;;8.05;4.00;;;;;;;10.98;48.60;99904.66;5036439;28;20037;-69
2021/05/06 10:32:26;;;;;;;10.57;4.03;;;;;;;11.09;47.66;99911.81;5039646;28;20045;-69
2021/05/06 10:34:55;;;;;;;14.18;4.70;;;;;;;10.93;47.11;99913.84;5048824;28;20120;-69
2021/05/06 10:37:27;;;;;;;12.32;4.18;;;;;;;9.93;49.24;99920.75;5057325;28;20052;-70
2021/05/06 10:39:54;;;;;;;10.70;4.22;;;;;;;9.55;51.32;99925.94;5048269;28;20132;-69
2021/05/06 10:42:27;;;;;;;11.60;4.40;;;;;;;10.00;50.77;99929.06;5024253;28;20045;-68
2021/05/06 10:45:13;;;;;;;11.23;4.20;;;;;;;9.84;52.15;99945.03;5049733;28;20450;-71
2021/05/06 10:47:43;;;;;;;8.38;3.95;;;;;;;9.19;55.73;99947.56;5065134;28;20041;-68
2021/05/06 10:50:10;;;;;;;9.90;4.22;;;;;;;8.25;63.85;99965.59;5059378;28;20053;-69
2021/05/06 10:52:45;;;;;;;13.57;4.85;;;;;;;8.14;68.44;99971.44;5028510;28;20045;-70
2021/05/06 10:55:14;;;;;;;10.23;5.20;;;;;;;7.69;73.51;99969.72;5065604;28;20158;-69
2021/05/06 10:57:41;;;;;;;9.57;4.90;;;;;;;7.18;77.92;99967.34;5061916;28;20454;-70
2021/05/06 11:00:16;;;;;;;13.32;5.80;;;;;;;7.49;79.74;99966.47;5037562;28;20041;-69
2021/05/06 11:02:59;;;;;;;11.98;6.03;;;;;;;7.95;78.37;99957.75;5058957;28;20069;-70
2021/05/06 11:05:27;;;;;;;12.13;6.45;;;;;;;8.07;79.57;99955.25;5062726;28;20072;-70
2021/05/06 11:08:02;;;;;;;10.85;6.28;;;;;;;8.22;78.69;99950.03;5059707;28;20503;-69
2021/05/06 11:10:48;;;;;;;13.13;6.43;;;;;;;8.28;78.49;99934.75;5065032;28;20068;-69
2021/05/06 11:13:19;;;;;;;12.73;6.38;;;;;;;8.80;77.06;99941.25;5059505;28;20109;-69
2021/05/06 11:15:46;;;;;;;10.93;6.20;;;;;;;9.21;75.55;99941.25;5074027;22;20093;-70
2021/05/06 11:18:47;;;;;;;11.30;6.60;;;;;;;9.61;76.07;99936.03;5063358;28;20490;-70
2021/05/06 11:21:34;;;;;;;9.50;6.10;;;;;;;9.62;75.34;99941.19;5062675;28;20181;-69
2021/05/06 11:24:24;;;;;;;9.50;5.90;;;;;;;9.31;76.51;99938.88;5065334;28;20081;-70
2021/05/06 11:26:59;;;;;;;9.05;5.20;;;;;;;9.22;74.52;99929.78;5065414;28;20075;-69
2021/05/06 11:29:27;;;;;;;11.02;5.70;;;;;;;8.97;75.02;99924.44;5047681;28;20048;-69
2021/05/06 11:31:55;;;;;;;13.45;5.75;;;;;;;8.65;75.93;99921.22;5051692;28;20055;-70
2021/05/06 11:34:37;;;;;;;8.00;5.93;;;;;;;9.08;77.09;99914.09;5056678;28;20542;-70
2021/05/06 11:37:15;;;;;;;9.63;5.57;;;;;;;9.63;74.81;99919.22;5046492;28;20599;-71
2021/05/06 11:39:55;;;;;;;8.80;5.78;;;;;;;10.00;72.67;99908.88;5062559;28;20101;-69
2021/05/06 11:42:23;;;;;;;7.18;5.68;;;;;;;9.79;71.87;99915.56;5067653;28;20062;-70
2021/05/06 11:45:06;;;;;;;9.52;6.10;;;;;;;9.99;70.48;99917.69;5059822;28;20048;-69
2021/05/06 11:47:33;;;;;;;8.00;5.72;;;;;;;10.47;70.48;99906.56;5054117;28;20044;-69
2021/05/06 11:50:17;;;;;;;11.63;4.97;;;;;;;10.47;68.62;99906.56;5070934;28;20052;-70
2021/05/06 11:52:43;;;;;;;9.25;4.88;;;;;;;10.75;69.12;99889.66;5064407;28;20045;-69
2021/05/06 11:55:26;;;;;;;6.32;5.18;;;;;;;10.78;67.38;99892.09;5064392;28;20359;-70
2021/05/06 11:57:52;;;;;;;8.38;5.18;;;;;;;10.81;65.85;99883.97;5059297;28;20068;-71
2021/05/06 12:00:26;;;;;;;8.30;4.72;;;;;;;11.32;64.27;99889.88;5061506;28;20099;-69
2021/05/06 12:03:10;;;;;;;8.27;5.55;;;;;;;11.44;62.90;99896.06;5060013;28;20052;-71
2021/05/06 12:06:06;;;;;;;9.35;6.00;;;;;;;11.88;59.67;99891.88;5041598;28;20048;-69
2021/05/06 12:08:44;;;;;;;5.88;4.53;;;;;;;12.33;59.42;99895.41;5031009;28;20066;-70
2021/05/06 12:11:11;;;;;;;6.88;4.60;;;;;;;12.75;56.22;99887.75;5061333;28;20082;-69
2021/05/06 12:13:38;;;;;;;6.88;4.43;;;;;;;12.11;58.38;99879.56;5062414;28;20128;-71
2021/05/06 12:16:21;;;;;;;7.40;4.32;;;;;;;12.40;57.22;99877.31;5031665;28;20055;-69
2021/05/06 12:18:58;;;;;;;5.22;4.43;;;;;;;12.16;57.37;99870.34;5066388;28;20040;-71
2021/05/06 12:21:51;;;;;;;7.97;4.05;;;;;;;12.21;55.59;99869.16;5059454;28;20056;-69
2021/05/06 12:28:24;;;;;;;5.55;4.50;;;;;;;12.42;54.25;99867.47;5051575;28;20066;-70
2021/05/06 12:30:59;;;;;;;6.90;4.70;;;;;;;11.71;56.69;99869.41;5060031;28;20044;-69
2021/05/06 12:33:31;;;;;;;11.73;7.15;;;;;;;12.11;55.87;99864.59;5057051;28;20061;-70
2021/05/06 12:35:58;;;;;;;6.97;4.80;;;;;;;12.25;54.94;99852.09;5056336;28;20137;-70
2021/05/06 12:38:27;;;;;;;7.07;4.35;;;;;;;12.05;55.34;99857.16;5055746;28;20164;-69
2021/05/06 12:40:54;;;;;;;6.97;4.82;;;;;;;12.26;54.34;99856.44;5058787;28;20052;-70
2021/05/06 12:43:28;;;;;;;5.07;4.22;;;;;;;12.29;55.45;99856.19;5057485;28;20232;-71
2021/05/06 12:50:59;;;;;;;6.00;3.80;;;;;;;12.27;53.88;99847.56;5053493;28;20510;-70
2021/05/06 12:53:25;;;;;;;7.60;4.15;;;;;;;12.36;54.02;99845.03;5061815;28;20048;-68
2021/05/06 12:55:53;;;;;;;6.65;3.92;;;;;;;12.14;52.96;99840.59;5065842;28;20589;-68
2021/05/06 12:58:25;;;;;;;5.25;3.90;;;;;;;12.60;52.28;99839.59;5065665;28;20119;-71
2021/05/06 13:00:51;;;;;;;7.65;3.80;;;;;;;12.74;52.00;99833.22;5063222;28;20076;-69
2021/05/06 13:03:26;;;;;;;4.60;3.17;;;;;;;12.26;51.88;99822.16;5047720;28;20058;-70
2021/05/06 13:05:53;;;;;;;4.63;3.38;;;;;;;12.32;51.29;99827.75;5061974;28;20049;-70
2021/05/06 13:08:35;;;;;;;3.63;3.00;;;;;;;12.18;51.89;99821.91;5055916;28;20129;-69
2021/05/06 13:11:03;;;;;;;4.85;3.17;;;;;;;12.61;51.38;99828.09;5075802;28;20041;-71
2021/05/06 13:13:43;;;;;;;5.03;3.38;;;;;;;12.98;48.81;99819.84;5055211;28;20040;-71
2021/05/06 13:16:16;;;;;;;6.32;2.55;;;;;;;12.52;49.43;99822.69;5065815;28;20049;-69
2021/05/06 13:19:04;;;;;;;4.88;3.25;;;;;;;12.70;48.81;99826.53;5049519;28;20051;-70
2021/05/06 13:21:32;;;;;;;10.40;2.65;;;;;;;12.81;46.75;99818.56;5026354;28;20049;-71
2021/05/06 13:24:01;;;;;;;6.55;2.40;;;;;;;12.78;47.53;99820.63;5058145;28;20075;-69
2021/05/06 13:26:33;;;;;;;4.30;2.75;;;;;;;12.86;46.93;99811.09;5068840;28;20033;-70
2021/05/06 13:29:01;;;;;;;3.28;2.33;;;;;;;12.81;46.18;99809.81;5054540;28;20148;-70
2021/05/06 13:31:33;;;;;;;4.47;2.63;;;;;;;12.95;46.43;99813.97;5064257;28;20078;-70
2021/05/06 13:34:17;;;;;;;3.63;2.63;;;;;;;12.65;47.07;99812.84;5053867;28;20075;-69
2021/05/06 13:36:57;;;;;;;5.97;2.70;;;;;;;13.07;46.16;99808.53;5065780;28;20129;-70
2021/05/06 13:39:24;;;;;;;3.45;2.40;;;;;;;13.14;46.54;99804.38;5060798;28;20116;-69
2021/05/06 13:41:51;;;;;;;4.18;2.13;;;;;;;12.67;46.26;99809.13;5077930;28;20084;-69
2021/05/06 13:44:20;;;;;;;8.65;2.53;;;;;;;12.46;45.83;99802.06;5060174;28;20282;-70
2021/05/06 13:46:56;;;;;;;9.25;2.92;;;;;;;12.97;45.34;99817.31;5055400;28;20099;-71
2021/05/06 13:49:29;;;;;;;5.03;1.65;;;;;;;13.13;44.52;99808.00;5060991;28;20131;-70
2021/05/06 13:51:58;;;;;;;2.92;1.98;;;;;;;13.11;44.09;99804.66;5066325;28;20052;-68
2021/05/06 13:54:26;;;;;;;4.22;1.85;;;;;;;13.20;42.19;99797.78;5066433;28;20667;-70
2021/05/06 13:56:54;;;;;;;5.70;2.40;;;;;;;13.46;41.82;99798.25;5042049;28;20072;-69
2021/05/06 13:59:21;;;;;;;4.07;2.00;;;;;;;13.60;42.17;99799.75;5044114;28;20048;-69
2021/05/06 14:01:55;;;;;;;3.35;2.05;;;;;;;13.48;42.48;99798.16;5056394;28;20123;-68
2021/05/06 14:04:22;;;;;;;5.50;2.47;;;;;;;12.91;42.74;99792.25;5060288;28;20129;-69
2021/05/06 14:06:49;;;;;;;3.33;2.13;;;;;;;12.32;42.70;99782.06;5040764;28;20124;-69
2021/05/06 14:09:17;;;;;;;4.28;1.85;;;;;;;12.47;43.33;99791.38;5094317;28;20462;-69
2021/05/06 14:11:46;;;;;;;8.18;2.03;;;;;;;12.75;43.00;99797.94;5059531;28;20045;-69
2021/05/06 14:14:13;;;;;;;4.03;1.45;;;;;;;12.82;42.76;99798.28;5066990;28;20116;-70
2021/05/06 14:16:40;;;;;;;5.10;2.10;;;;;;;12.63;43.24;99797.13;5020680;28;20056;-70
2021/05/06 14:19:08;;;;;;;3.03;1.83;;;;;;;12.67;42.92;99790.63;5057521;28;20053;-70
2021/05/06 14:21:36;;;;;;;4.85;2.17;;;;;;;12.74;41.97;99793.59;5064743;28;20063;-71
2021/05/06 14:24:04;;;;;;;4.50;2.60;;;;;;;13.25;43.32;99792.97;5061640;28;21452;-70
2021/05/06 14:26:31;;;;;;;2.50;2.20;;;;;;;13.20;41.74;99784.56;5065824;28;20057;-70
2021/05/06 14:28:58;;;;;;;2.10;1.60;;;;;;;13.17;40.82;99777.72;5058655;28;20053;-70
2021/05/06 14:31:24;;;;;;;3.20;1.73;;;;;;;12.82;41.11;99777.97;5063426;28;20075;-69
2021/05/06 14:33:51;;;;;;;2.40;1.63;;;;;;;12.63;41.91;99789.19;5058193;28;20132;-70
2021/05/06 14:36:18;;;;;;;3.65;1.90;;;;;;;12.45;42.16;99785.41;5061926;28;20078;-70
2021/05/06 14:38:44;;;;;;;3.13;2.13;;;;;;;12.25;42.83;99783.50;5058767;28;20126;-70
2021/05/06 14:41:11;;;;;;;2.63;2.40;;;;;;;12.37;43.01;99780.72;5048869;28;20526;-71
2021/05/06 14:43:39;;;;;;;3.30;1.95;;;;;;;12.26;43.21;99780.75;5069884;28;20062;-71